首页
METAR-TAF:

METAR-TAF

机场 :

Abraham Lincoln Capital Airport

斯普林菲尔德, 伊利诺伊州, 美国

纬度: 39-50-43N, 经度: 089-41-02W, 海拔: 182米

当前天气观测

该预报发布于45分钟前的22:52 UTC
风速7节,风向南转西南
温度 20°C
湿度 64%
气压 1014 hPa
能見度: 16.1公里
多云层高于4200英尺
阴天层高于6000英尺

METAR: KSPI 062252Z 20007KT 10SM BKN042 OVC060 20/13 A2993 RMK AO2 SLP136 T02000128

时间: 18:37 (23:37 UTC)

预报

该预报发布于6分钟前的23:31 UTC
预报有效从07日的 00点(UTC)到 07日的 24点(UTC)
风速8节,风向
能見度: 10公里
多云层高于4000英尺
从 07日的 0900点(UTC)
风速8节,风向南转西南
能見度: 10公里
多云层高于8000英尺
从 07日的 1500点(UTC)
风速10节,风向西南
能見度: 10公里
散云层高于2500英尺
多云层高于8000英尺
从 07日的 1800点(UTC)
风速10节,风向西转西南,有时为18节阵风
能見度: 10公里
散云层高于3500英尺

TAF: KSPI 062331Z 0700/0724 18008KT P6SM BKN040 FM070900 21008KT P6SM BKN080 FM071500 23010KT P6SM SCT025 BKN080 FM071800 24010G18KT P6SM SCT035

超过4000个机场的气象观测和天气预报(METAR&TAF报告)。

可查询的气象台以黄色和红色小点在地图上表示。

将鼠标移到小点上方,可查看气象台名称。

然后点击查看天气观测和预报。

如需切换地图:点击带黑十字的绿色按钮放大地图;点击带横线的绿色按钮缩小地图;或者点击绿色箭头查看邻近地区的地图。


METAR-TAF: